createdAt,value
2018-12-05T00:00:23.352Z,76.10
2018-12-05T00:02:51.640Z,75.67
2018-12-05T00:05:19.864Z,75.30
2018-12-05T00:07:48.155Z,75.01
2018-12-05T00:10:16.371Z,75.31
2018-12-05T00:12:44.680Z,74.46
2018-12-05T00:15:12.976Z,74.42
2018-12-05T00:17:41.235Z,75.42
2018-12-05T00:20:10.125Z,74.17
2018-12-05T00:22:38.333Z,74.79
2018-12-05T00:25:06.590Z,74.86
2018-12-05T00:27:34.848Z,74.18
2018-12-05T00:30:03.584Z,74.14
2018-12-05T00:32:31.919Z,73.39
2018-12-05T00:35:00.215Z,73.73
2018-12-05T00:37:28.588Z,73.79
2018-12-05T00:39:56.776Z,74.10
2018-12-05T00:42:24.988Z,74.36
2018-12-05T00:44:53.203Z,74.17
2018-12-05T00:47:21.470Z,74.52
2018-12-05T00:49:49.687Z,74.77
2018-12-05T00:52:17.893Z,75.53
2018-12-05T00:54:46.105Z,75.31
2018-12-05T00:57:14.403Z,75.40
2018-12-05T00:59:42.695Z,75.76
2018-12-05T01:02:11.044Z,76.01
2018-12-05T01:04:39.292Z,75.98
2018-12-05T01:07:07.503Z,76.14
2018-12-05T01:12:22.116Z,75.76
2018-12-05T01:14:50.391Z,75.79
2018-12-05T01:17:18.608Z,75.96
2018-12-05T01:19:46.832Z,75.84
2018-12-05T01:22:15.054Z,76.05
2018-12-05T01:24:43.311Z,76.22
2018-12-05T01:27:11.523Z,76.25
2018-12-05T01:29:39.735Z,75.76
2018-12-05T01:32:08.043Z,76.55
2018-12-05T01:34:36.272Z,76.49
2018-12-05T01:37:04.615Z,76.40
2018-12-05T01:39:32.854Z,75.82
2018-12-05T01:42:01.075Z,76.19
2018-12-05T01:44:29.298Z,76.50
2018-12-05T01:46:57.599Z,76.52
2018-12-05T01:49:25.810Z,76.55
2018-12-05T01:51:54.031Z,76.17
2018-12-05T01:54:22.287Z,76.03
2018-12-05T01:56:50.523Z,76.18
2018-12-05T01:59:18.884Z,76.37
2018-12-05T02:01:47.165Z,76.30
2018-12-05T02:04:15.378Z,76.33
2018-12-05T02:06:43.737Z,76.64
2018-12-05T02:09:11.944Z,76.88
2018-12-05T02:11:40.211Z,76.67
2018-12-05T02:14:08.459Z,76.72
2018-12-05T02:16:36.663Z,77.05
2018-12-05T02:19:05.227Z,77.32
2018-12-05T02:21:33.484Z,76.26
2018-12-05T02:24:01.735Z,76.72
2018-12-05T02:26:29.939Z,76.99
2018-12-05T02:28:58.155Z,76.91
2018-12-05T02:31:26.802Z,77.01
2018-12-05T02:33:55.147Z,76.91
2018-12-05T02:36:23.403Z,77.33
2018-12-05T02:38:51.672Z,77.01
2018-12-05T02:41:19.870Z,77.24
2018-12-05T02:43:48.092Z,77.00
2018-12-05T02:46:16.303Z,77.53
2018-12-05T02:48:44.611Z,77.48
2018-12-05T02:51:12.912Z,77.43
2018-12-05T02:53:41.264Z,77.43
2018-12-05T02:56:09.569Z,77.42
2018-12-05T02:58:37.831Z,77.57
2018-12-05T03:01:06.131Z,77.41
2018-12-05T03:03:34.375Z,77.76
2018-12-05T03:06:02.597Z,77.83
2018-12-05T03:08:30.906Z,77.28
2018-12-05T03:10:59.116Z,77.47
2018-12-05T03:13:27.403Z,77.58
2018-12-05T03:15:55.630Z,77.91
2018-12-05T03:18:23.923Z,77.51
2018-12-05T03:20:52.225Z,77.94
2018-12-05T03:23:20.436Z,78.03
2018-12-05T03:25:48.728Z,77.25
2018-12-05T03:28:16.935Z,78.14
2018-12-05T03:30:45.222Z,78.21
2018-12-05T03:33:13.535Z,78.37
2018-12-05T03:35:41.856Z,78.33
2018-12-05T03:38:10.121Z,78.23
2018-12-05T03:40:38.417Z,77.94
2018-12-05T03:43:06.722Z,78.14
2018-12-05T03:45:35.057Z,77.32
2018-12-05T03:48:03.291Z,77.48
2018-12-05T03:50:31.527Z,77.62
2018-12-05T03:52:59.910Z,77.83
2018-12-05T03:55:28.242Z,78.00
2018-12-05T03:57:56.465Z,77.70
2018-12-05T04:00:24.685Z,77.98
2018-12-05T04:02:52.971Z,76.83
2018-12-05T04:05:21.371Z,77.22
2018-12-05T04:07:49.671Z,76.90
2018-12-05T04:10:18.016Z,77.00
2018-12-05T04:12:46.229Z,77.25
2018-12-05T04:15:14.700Z,76.43
2018-12-05T04:17:42.965Z,76.73
2018-12-05T04:20:11.180Z,76.47
2018-12-05T04:22:39.398Z,76.60
2018-12-05T04:25:07.896Z,76.64
2018-12-05T04:27:36.193Z,77.15
2018-12-05T04:30:05.486Z,76.70
2018-12-05T04:32:33.708Z,77.05
2018-12-05T04:35:01.935Z,76.84
2018-12-05T04:37:30.329Z,76.53
2018-12-05T04:39:58.631Z,76.74
2018-12-05T04:42:27.771Z,76.96
2018-12-05T04:44:55.985Z,76.50
2018-12-05T04:47:24.203Z,76.74
2018-12-05T04:49:52.603Z,76.86
2018-12-05T04:52:20.852Z,76.57
2018-12-05T04:54:49.277Z,76.68
2018-12-05T04:57:17.489Z,76.50
2018-12-05T04:59:45.827Z,76.53
2018-12-05T05:02:14.100Z,76.20
2018-12-05T05:04:42.414Z,76.34
2018-12-05T05:07:10.731Z,76.82
2018-12-05T05:09:38.972Z,76.91
2018-12-05T05:12:07.332Z,76.36
2018-12-05T05:14:35.534Z,76.64
2018-12-05T05:17:03.792Z,76.86
2018-12-05T05:19:32.036Z,76.66
2018-12-05T05:22:00.263Z,77.17
2018-12-05T05:24:28.491Z,76.56
2018-12-05T05:26:56.795Z,76.81
2018-12-05T05:29:25.051Z,76.79
2018-12-05T05:31:53.268Z,76.73
2018-12-05T05:34:21.776Z,76.92
2018-12-05T05:36:50.084Z,77.39
2018-12-05T05:39:18.386Z,78.13
2018-12-05T05:41:46.592Z,78.17
2018-12-05T05:44:14.880Z,78.13
2018-12-05T05:46:43.093Z,78.33
2018-12-05T05:49:11.429Z,79.75
2018-12-05T05:54:23.796Z,79.07
2018-12-05T05:56:52.008Z,79.53
2018-12-05T05:59:20.240Z,79.27
2018-12-05T06:01:48.454Z,79.27
2018-12-05T06:04:16.686Z,78.85
2018-12-05T06:06:44.912Z,78.73
2018-12-05T06:09:13.221Z,78.98
2018-12-05T06:11:41.483Z,79.33
2018-12-05T06:14:09.700Z,78.97
2018-12-05T06:16:37.988Z,78.96
2018-12-05T06:19:06.302Z,79.01
2018-12-05T06:21:34.588Z,78.36
2018-12-05T06:24:02.848Z,78.69
2018-12-05T06:26:31.071Z,78.38
2018-12-05T06:28:59.297Z,78.66
2018-12-05T06:31:27.516Z,78.49
2018-12-05T06:33:55.741Z,78.82
2018-12-05T06:36:23.992Z,78.71
2018-12-05T06:38:52.219Z,79.08
2018-12-05T06:41:20.433Z,79.31
2018-12-05T06:43:48.705Z,78.60
2018-12-05T06:46:16.931Z,79.01
2018-12-05T06:48:45.174Z,78.62
2018-12-05T06:51:13.402Z,78.71
2018-12-05T06:53:41.731Z,79.07
2018-12-05T06:56:09.927Z,78.49
2018-12-05T06:58:38.148Z,78.86
2018-12-05T07:01:06.404Z,79.44
2018-12-05T07:03:34.743Z,78.97
2018-12-05T07:06:03.032Z,79.78
2018-12-05T07:08:31.285Z,79.70
2018-12-05T07:10:59.503Z,79.59
2018-12-05T07:13:27.783Z,78.95
2018-12-05T07:15:56.039Z,79.32
2018-12-05T07:18:24.277Z,80.09
2018-12-05T07:20:52.517Z,80.18
2018-12-05T07:23:20.811Z,80.21
2018-12-05T07:25:49.079Z,80.13
2018-12-05T07:28:17.388Z,79.70
2018-12-05T07:30:45.627Z,79.78
2018-12-05T07:33:13.938Z,79.72
2018-12-05T07:35:42.180Z,79.25
2018-12-05T07:38:10.649Z,79.41
2018-12-05T07:40:38.880Z,79.06
2018-12-05T07:43:07.132Z,79.15
2018-12-05T07:45:35.381Z,78.43
2018-12-05T07:48:03.861Z,78.04
2018-12-05T07:50:32.089Z,78.04
2018-12-05T07:53:00.399Z,79.08
2018-12-05T07:55:28.623Z,78.83
2018-12-05T07:57:56.941Z,78.96
2018-12-05T08:00:25.256Z,78.59
2018-12-05T08:02:53.512Z,78.03
2018-12-05T08:05:21.888Z,78.26
2018-12-05T08:07:50.127Z,78.60
2018-12-05T08:10:18.359Z,78.53
2018-12-05T08:12:50.504Z,78.57
2018-12-05T08:15:18.764Z,78.95
2018-12-05T08:17:46.978Z,78.83
2018-12-05T08:20:15.217Z,78.71
2018-12-05T08:22:43.526Z,78.90
2018-12-05T08:25:12.130Z,78.71
2018-12-05T08:27:40.365Z,78.68
2018-12-05T08:30:08.645Z,78.69
2018-12-05T08:32:36.956Z,77.94
2018-12-05T08:35:05.855Z,78.70
2018-12-05T08:37:34.132Z,77.96
2018-12-05T08:40:02.397Z,77.28
2018-12-05T08:42:30.620Z,78.32
2018-12-05T08:44:58.846Z,77.98
2018-12-05T08:47:33.642Z,77.30
2018-12-05T08:49:57.816Z,78.40
2018-12-05T08:52:26.039Z,78.44
2018-12-05T08:54:54.492Z,78.45
2018-12-05T08:57:22.757Z,79.33
2018-12-05T08:59:50.981Z,78.32
2018-12-05T09:02:19.205Z,78.44
2018-12-05T09:04:47.521Z,77.92
2018-12-05T09:07:15.861Z,77.14
2018-12-05T09:09:44.084Z,77.17
2018-12-05T09:12:12.448Z,77.11
2018-12-05T09:14:40.689Z,78.14
2018-12-05T09:17:08.912Z,78.15
2018-12-05T09:19:37.200Z,78.37
2018-12-05T09:22:05.486Z,78.15
2018-12-05T09:24:33.716Z,78.21
2018-12-05T09:27:01.935Z,79.13
2018-12-05T09:29:30.152Z,78.38
2018-12-05T09:31:58.457Z,79.11
2018-12-05T09:34:26.672Z,79.14
2018-12-05T09:36:54.901Z,78.70
2018-12-05T09:39:23.120Z,77.43
2018-12-05T09:41:51.340Z,77.60
2018-12-05T09:44:19.639Z,77.51
2018-12-05T09:46:47.884Z,77.45
2018-12-05T09:49:16.104Z,76.86
2018-12-05T09:51:44.363Z,77.58
2018-12-05T09:54:12.597Z,76.94
2018-12-05T09:56:40.848Z,76.59
2018-12-05T09:59:09.063Z,76.32
2018-12-05T10:01:37.291Z,75.98
2018-12-05T10:04:05.610Z,76.56
2018-12-05T10:06:33.833Z,76.55
2018-12-05T10:09:02.139Z,76.68
2018-12-05T10:11:30.495Z,76.93
2018-12-05T10:13:58.732Z,76.89
2018-12-05T10:16:26.998Z,76.95
2018-12-05T10:18:55.324Z,76.90
2018-12-05T10:21:23.547Z,76.57
2018-12-05T10:23:51.857Z,76.59
2018-12-05T10:26:20.150Z,76.31
2018-12-05T10:28:48.372Z,75.58
2018-12-05T10:31:16.692Z,75.87
2018-12-05T10:33:44.924Z,75.30
2018-12-05T10:36:13.173Z,75.64
2018-12-05T10:38:41.418Z,75.68
2018-12-05T10:41:09.660Z,75.25
2018-12-05T10:43:37.907Z,74.97
2018-12-05T10:46:06.391Z,75.63
2018-12-05T10:48:34.605Z,76.14
2018-12-05T10:51:02.881Z,75.37
2018-12-05T10:53:31.159Z,75.71
2018-12-05T10:55:59.435Z,74.91
2018-12-05T10:58:27.740Z,74.89
2018-12-05T11:01:01.520Z,74.57
2018-12-05T11:03:35.227Z,73.95
2018-12-05T11:06:09.411Z,74.58
2018-12-05T11:08:43.347Z,74.62
2018-12-05T11:11:17.293Z,74.72
2018-12-05T11:13:50.972Z,74.24
2018-12-05T11:16:48.820Z,74.45
2018-12-05T11:19:22.777Z,74.54
2018-12-05T11:21:56.494Z,75.10
2018-12-05T11:24:30.347Z,74.18
2018-12-05T11:26:58.867Z,74.00
2018-12-05T11:29:27.167Z,74.68
2018-12-05T11:31:55.399Z,74.41
2018-12-05T11:34:23.807Z,75.13
2018-12-05T11:36:52.079Z,75.34
2018-12-05T11:39:20.355Z,75.12
2018-12-05T11:41:48.623Z,75.60
2018-12-05T11:44:16.836Z,75.72
2018-12-05T11:46:45.176Z,75.65
2018-12-05T11:49:13.410Z,75.59
2018-12-05T11:51:41.827Z,76.22
2018-12-05T11:54:10.052Z,76.25
2018-12-05T11:56:38.307Z,76.20
2018-12-05T11:59:06.620Z,76.36
2018-12-05T12:01:35.041Z,76.34
2018-12-05T12:04:03.440Z,77.18
2018-12-05T12:06:31.767Z,77.21
2018-12-05T12:09:00.012Z,77.33
2018-12-05T12:11:28.343Z,77.50
2018-12-05T12:13:56.656Z,77.50
2018-12-05T12:16:25.008Z,76.65
2018-12-05T12:18:53.278Z,77.07
2018-12-05T12:21:21.684Z,77.01
2018-12-05T12:23:50.001Z,77.21
2018-12-05T12:26:18.312Z,77.07
2018-12-05T12:28:46.573Z,77.37
2018-12-05T12:31:14.854Z,77.76
2018-12-05T12:33:43.240Z,78.86
2018-12-05T12:36:11.568Z,78.40
2018-12-05T12:38:40.602Z,78.89
2018-12-05T12:41:09.195Z,78.33
2018-12-05T12:43:37.494Z,78.46
2018-12-05T12:46:05.868Z,78.59
2018-12-05T12:48:34.230Z,78.73
2018-12-05T12:51:02.584Z,78.40
2018-12-05T12:53:30.985Z,78.48
2018-12-05T12:55:59.237Z,78.62
2018-12-05T12:58:27.565Z,77.67
2018-12-05T13:00:55.896Z,78.54
2018-12-05T13:03:24.166Z,79.26
2018-12-05T13:05:52.443Z,79.21
2018-12-05T13:08:20.708Z,79.68
2018-12-05T13:10:49.022Z,79.64
2018-12-05T13:13:17.267Z,79.40
2018-12-05T13:15:45.523Z,79.18
2018-12-05T13:18:13.787Z,79.42
2018-12-05T13:20:42.092Z,78.97
2018-12-05T13:23:10.415Z,79.49
2018-12-05T13:25:38.888Z,79.46
2018-12-05T13:28:07.171Z,79.48
2018-12-05T13:30:35.401Z,79.15
2018-12-05T13:33:03.708Z,79.16
2018-12-05T13:35:32.041Z,78.62
2018-12-05T13:38:00.321Z,79.01
2018-12-05T13:40:28.532Z,78.98
2018-12-05T13:42:56.819Z,78.60
2018-12-05T13:45:25.085Z,79.14
2018-12-05T13:47:53.356Z,79.04
2018-12-05T13:50:21.609Z,78.97
2018-12-05T13:52:49.999Z,79.22
2018-12-05T13:55:18.296Z,78.90
2018-12-05T13:57:46.541Z,78.61
2018-12-05T14:00:14.996Z,79.49
2018-12-05T14:02:43.596Z,78.95
2018-12-05T14:05:11.916Z,78.78
2018-12-05T14:07:40.133Z,79.21
2018-12-05T14:10:08.579Z,78.93
2018-12-05T14:12:38.746Z,78.57
2018-12-05T14:15:07.897Z,78.09
2018-12-05T14:17:36.175Z,79.54
2018-12-05T14:20:06.156Z,79.62
2018-12-05T14:22:34.395Z,79.29
2018-12-05T14:25:02.648Z,79.54
2018-12-05T14:27:30.986Z,79.35
2018-12-05T14:29:59.235Z,78.53
2018-12-05T14:32:27.587Z,79.15
2018-12-05T14:34:55.920Z,79.10
2018-12-05T14:37:24.271Z,79.25
2018-12-05T14:39:52.592Z,79.29
2018-12-05T14:42:20.883Z,78.84
2018-12-05T14:44:49.255Z,79.09
2018-12-05T14:47:17.511Z,79.21
2018-12-05T14:49:45.820Z,78.55
2018-12-05T14:52:14.184Z,79.11
2018-12-05T14:54:42.418Z,78.89
2018-12-05T14:57:10.641Z,79.09
2018-12-05T14:59:38.959Z,79.38
2018-12-05T15:02:07.167Z,79.73
2018-12-05T15:04:35.419Z,79.78
2018-12-05T15:09:46.204Z,79.47
2018-12-05T15:12:14.522Z,79.09
2018-12-05T15:14:42.766Z,79.24
2018-12-05T15:17:11.071Z,80.11
2018-12-05T15:19:39.308Z,80.04
2018-12-05T15:22:07.584Z,79.83
2018-12-05T15:24:35.816Z,79.54
2018-12-05T15:27:04.072Z,79.82
2018-12-05T15:29:32.309Z,79.66
2018-12-05T15:32:00.557Z,79.85
2018-12-05T15:34:28.820Z,81.11
2018-12-05T15:36:57.048Z,81.27
2018-12-05T15:39:25.284Z,80.69
2018-12-05T15:41:53.505Z,80.74
2018-12-05T15:44:21.763Z,80.88
2018-12-05T15:46:50.002Z,80.39
2018-12-05T15:49:18.299Z,80.49
2018-12-05T15:51:46.525Z,80.45
2018-12-05T15:54:14.828Z,80.52
2018-12-05T15:56:43.295Z,80.21
2018-12-05T15:59:11.616Z,80.28
2018-12-05T16:01:39.831Z,80.32
2018-12-05T16:04:08.228Z,80.58
2018-12-05T16:06:36.473Z,80.60
2018-12-05T16:09:06.311Z,80.63
2018-12-05T16:11:34.519Z,79.81
2018-12-05T16:14:02.775Z,80.44
2018-12-05T16:16:30.986Z,80.89
2018-12-05T16:18:59.196Z,80.88
2018-12-05T16:21:28.027Z,80.87
2018-12-05T16:23:56.252Z,81.41
2018-12-05T16:26:24.561Z,80.79
2018-12-05T16:28:52.782Z,80.81
2018-12-05T16:31:21.093Z,80.56
2018-12-05T16:33:49.314Z,82.00
2018-12-05T16:36:17.633Z,81.24
2018-12-05T16:38:45.853Z,81.19
2018-12-05T16:41:14.214Z,80.75
2018-12-05T16:43:42.510Z,80.80
2018-12-05T16:46:10.785Z,80.60
2018-12-05T16:48:39.001Z,80.94
2018-12-05T16:51:07.315Z,81.19
2018-12-05T16:53:35.529Z,81.74
2018-12-05T16:56:03.810Z,82.20
2018-12-05T16:58:32.121Z,81.88
2018-12-05T17:01:00.432Z,80.81
2018-12-05T17:03:28.743Z,81.68
2018-12-05T17:05:56.983Z,81.22
2018-12-05T17:08:25.232Z,81.48
2018-12-05T17:10:53.471Z,82.15
2018-12-05T17:13:21.692Z,82.38
2018-12-05T17:15:49.941Z,81.76
2018-12-05T17:18:18.188Z,82.22
2018-12-05T17:20:46.468Z,81.57
2018-12-05T17:23:14.695Z,81.41
2018-12-05T17:25:42.974Z,81.23
2018-12-05T17:28:11.226Z,80.85
2018-12-05T17:30:39.624Z,81.27
2018-12-05T17:33:07.847Z,81.37
2018-12-05T17:35:36.516Z,81.44
2018-12-05T17:38:04.813Z,81.56
2018-12-05T17:40:33.026Z,82.24
2018-12-05T17:43:01.244Z,83.38
2018-12-05T17:45:29.710Z,83.21
2018-12-05T17:47:58.024Z,83.02
2018-12-05T17:50:26.261Z,83.75
2018-12-05T17:52:54.472Z,83.29
2018-12-05T17:55:22.720Z,83.52
2018-12-05T17:57:50.946Z,83.80
2018-12-05T18:00:19.314Z,83.85
2018-12-05T18:02:47.631Z,83.79
2018-12-05T18:05:15.894Z,83.74
2018-12-05T18:07:44.216Z,83.75
2018-12-05T18:10:12.464Z,83.52
2018-12-05T18:12:40.732Z,83.88
2018-12-05T18:15:09.003Z,83.45
2018-12-05T18:17:37.402Z,84.14
2018-12-05T18:20:09.218Z,84.32
2018-12-05T18:22:37.489Z,84.47
2018-12-05T18:25:05.799Z,84.33
2018-12-05T18:27:34.033Z,84.54
2018-12-05T18:30:02.410Z,84.12
2018-12-05T18:32:30.622Z,84.60
2018-12-05T18:34:58.859Z,83.91
2018-12-05T18:37:27.335Z,83.59
2018-12-05T18:39:55.556Z,82.72
2018-12-05T18:42:23.798Z,83.29
2018-12-05T18:44:52.084Z,84.24
2018-12-05T18:47:25.336Z,84.21
2018-12-05T18:49:53.578Z,84.77
2018-12-05T18:52:21.940Z,83.76
2018-12-05T18:54:50.161Z,83.43
2018-12-05T18:57:18.389Z,82.69
2018-12-05T18:59:46.636Z,82.67
2018-12-05T19:02:14.948Z,83.02
2018-12-05T19:04:43.201Z,82.89
2018-12-05T19:07:11.560Z,83.01
2018-12-05T19:09:39.775Z,82.27
2018-12-05T19:12:08.057Z,82.60
2018-12-05T19:14:41.868Z,82.94
2018-12-05T19:17:11.177Z,83.65
2018-12-05T19:19:39.393Z,83.60
2018-12-05T19:22:07.627Z,83.23
2018-12-05T19:24:35.847Z,83.29
2018-12-05T19:27:04.181Z,83.19
2018-12-05T19:29:32.523Z,83.07
2018-12-05T19:32:00.776Z,82.43
2018-12-05T19:34:29.012Z,82.76
2018-12-05T19:36:57.316Z,82.93
2018-12-05T19:39:25.544Z,84.28
2018-12-05T19:41:54.130Z,84.51
2018-12-05T19:44:22.509Z,84.27
2018-12-05T19:46:50.899Z,84.04
2018-12-05T19:49:19.119Z,83.96
2018-12-05T19:51:47.439Z,84.17
2018-12-05T19:54:15.815Z,83.39
2018-12-05T19:56:44.115Z,83.12
2018-12-05T19:59:12.479Z,83.56
2018-12-05T20:01:40.750Z,83.56
2018-12-05T20:04:09.032Z,83.98
2018-12-05T20:06:37.305Z,83.18
2018-12-05T20:09:07.446Z,83.69
2018-12-05T20:11:35.693Z,82.71
2018-12-05T20:14:04.529Z,83.14
2018-12-05T20:16:33.234Z,85.39
2018-12-05T20:19:01.461Z,82.33
2018-12-05T20:21:29.722Z,81.90
2018-12-05T20:23:57.935Z,82.27
2018-12-05T20:26:26.307Z,81.78
2018-12-05T20:28:54.651Z,82.47
2018-12-05T20:31:23.037Z,82.48
2018-12-05T20:33:51.255Z,83.32
2018-12-05T20:36:19.586Z,82.38
2018-12-05T20:38:47.891Z,83.08
2018-12-05T20:41:16.240Z,82.51
2018-12-05T20:43:50.982Z,83.04
2018-12-05T20:46:19.219Z,81.90
2018-12-05T20:48:47.599Z,82.44
2018-12-05T20:51:15.923Z,81.64
2018-12-05T20:53:44.284Z,82.72
2018-12-05T20:56:12.514Z,82.48
2018-12-05T20:58:40.862Z,82.08
2018-12-05T21:01:09.159Z,81.97
2018-12-05T21:03:37.403Z,82.07
2018-12-05T21:06:05.759Z,82.52
2018-12-05T21:08:33.984Z,82.02
2018-12-05T21:11:02.515Z,82.63
2018-12-05T21:13:30.775Z,82.88
2018-12-05T21:15:58.995Z,82.97
2018-12-05T21:18:27.253Z,83.19
2018-12-05T21:20:55.470Z,83.36
2018-12-05T21:23:23.756Z,83.23
2018-12-05T21:25:52.011Z,83.17
2018-12-05T21:28:20.279Z,83.71
2018-12-05T21:30:48.542Z,84.13
2018-12-05T21:33:16.799Z,84.01
2018-12-05T21:35:45.014Z,83.91
2018-12-05T21:38:13.256Z,83.35
2018-12-05T21:40:41.528Z,82.93
2018-12-05T21:43:09.756Z,83.19
2018-12-05T21:45:38.801Z,83.44
2018-12-05T21:48:07.059Z,83.19
2018-12-05T21:50:35.275Z,82.96
2018-12-05T21:53:03.557Z,83.06
2018-12-05T21:55:31.817Z,82.44
2018-12-05T21:58:00.040Z,82.40
2018-12-05T22:00:28.262Z,83.04
2018-12-05T22:02:56.625Z,82.86
2018-12-05T22:05:24.863Z,82.62
2018-12-05T22:07:53.284Z,82.37
2018-12-05T22:10:21.499Z,82.50
2018-12-05T22:12:49.855Z,82.83
2018-12-05T22:15:18.110Z,82.62
2018-12-05T22:17:46.373Z,82.66
2018-12-05T22:20:14.602Z,82.57
2018-12-05T22:22:42.837Z,82.64
2018-12-05T22:25:11.055Z,82.65
2018-12-05T22:27:39.488Z,82.31
2018-12-05T22:30:08.363Z,82.44
2018-12-05T22:32:36.633Z,82.19
2018-12-05T22:35:05.215Z,82.42
2018-12-05T22:37:33.518Z,81.95
2018-12-05T22:40:01.911Z,81.81
2018-12-05T22:42:30.222Z,82.10
2018-12-05T22:44:58.527Z,82.55
2018-12-05T22:47:26.838Z,82.17
2018-12-05T22:49:55.223Z,82.09
2018-12-05T22:52:23.456Z,81.72
2018-12-05T22:54:51.773Z,81.42
2018-12-05T22:57:20.051Z,80.94
2018-12-05T22:59:48.283Z,81.86
2018-12-05T23:02:16.601Z,83.08
2018-12-05T23:04:44.880Z,82.48
2018-12-05T23:07:13.156Z,81.83
2018-12-05T23:09:41.472Z,82.68
2018-12-05T23:12:09.794Z,82.40
2018-12-05T23:14:38.096Z,82.70
2018-12-05T23:17:06.463Z,83.10
2018-12-05T23:19:34.715Z,82.59
2018-12-05T23:22:03.568Z,82.54
2018-12-05T23:24:31.928Z,81.97
2018-12-05T23:27:00.223Z,81.84
2018-12-05T23:29:28.631Z,82.11
2018-12-05T23:31:56.865Z,81.53
2018-12-05T23:34:25.202Z,81.87
2018-12-05T23:36:53.415Z,82.25
2018-12-05T23:39:21.655Z,82.27
2018-12-05T23:41:50.040Z,81.70
2018-12-05T23:44:19.763Z,81.35
2018-12-05T23:46:48.049Z,81.70
2018-12-05T23:49:16.591Z,82.60
2018-12-05T23:51:44.853Z,82.50
2018-12-05T23:54:13.128Z,82.25
2018-12-05T23:56:41.378Z,81.93
2018-12-05T23:59:09.635Z,82.10
